Terminal Aerodrome Forecast
Issued by NWS

Home | Current Version | Previous Version | Text Only | Print | Product List | Glossary On
Versions: 1 2 3 4 5 6 7 8 9 10 11 12 13
000
FTAK31 PAJN 270200 AAA
TAFAYA
TAF AMD
PAYA 270217Z 2702/2724 00000KT P6SM VCFG FEW050
      TEMPO 2702/2706 1/2SM FG VV002
     FM270600 08008KT P6SM FEW050
     FM271200 06010G20KT P6SM FEW050
     FM271800 06008KT P6SM SCT010
      AMD LTD TO CLD VIS AND WIND TIL 271000=

USA.gov is the U.S. government's official web portal to all federal, state and local government web resources and services.